Skardu Weather



Skardu's Current Weather

Temprature 6.54o clear sky

clear sky

Rain: 0 %

Min Temprature6.54o
Max Temprature6.54o
Humidity47
Wind Speed0.67 m/h
Sun Rise06:15:08
Sun Set17:07:10
Current Time: 28-Oct-2020 04:14:34
Lat/Lon: 35.29, 75.63




Skardu's Geo Location



Skardu's Weather Forecast

Time Overall Temp Min Temp Max Temp Humidity Wind Speed Rain
28-Oct-2020 (Wed)
05:00:00 clear sky 6.700 6.150 6.700 47 0.6 m/h 0 %
08:00:00 broken clouds 9.390 9.390 9.980 38 0.23 m/h 0 %
11:00:00 overcast clouds 12.600 12.600 12.970 30 0.06 m/h 0 %
14:00:00 overcast clouds 15.130 15.130 15.190 24 4.67 m/h 0 %
17:00:00 overcast clouds 12.790 12.790 12.790 29 4.88 m/h 0 %
20:00:00 overcast clouds 10.520 10.520 10.520 36 3.31 m/h 0 %
23:00:00 broken clouds 9.250 9.250 9.250 41 2.97 m/h 0 %
29-Oct-2020 (Thu)
02:00:00 scattered clouds 8.240 8.240 8.240 45 2.97 m/h 0 %
05:00:00 broken clouds 7.610 7.610 7.610 48 2.98 m/h 0 %
08:00:00 broken clouds 9.740 9.740 9.740 40 3.11 m/h 0 %
11:00:00 broken clouds 12.190 12.190 12.190 31 5.2 m/h 0 %
14:00:00 overcast clouds 12.680 12.680 12.680 31 6.8 m/h 0 %
17:00:00 broken clouds 10.510 10.510 10.510 36 3.76 m/h 0 %
20:00:00 broken clouds 8.590 8.590 8.590 45 3.66 m/h 0 %
23:00:00 scattered clouds 6.880 6.880 6.880 52 2.39 m/h 0 %
30-Oct-2020 (Fri)
02:00:00 scattered clouds 6.090 6.090 6.090 53 1.94 m/h 0 %
05:00:00 scattered clouds 5.310 5.310 5.310 56 1.59 m/h 0 %
08:00:00 broken clouds 7.120 7.120 7.120 48 1.11 m/h 0 %
11:00:00 scattered clouds 9.580 9.580 9.580 38 1 m/h 0 %
14:00:00 overcast clouds 10.340 10.340 10.340 36 0.8 m/h 0 %
17:00:00 overcast clouds 9.070 9.070 9.070 42 0.97 m/h 0 %
20:00:00 scattered clouds 7.490 7.490 7.490 48 0.39 m/h 0 %
23:00:00 few clouds 6.220 6.220 6.220 51 1.17 m/h 0 %
31-Oct-2020 (Sat)
02:00:00 clear sky 4.780 4.780 4.780 55 0.7 m/h 0 %
05:00:00 clear sky 3.740 3.740 3.740 58 0.44 m/h 0 %
08:00:00 clear sky 5.820 5.820 5.820 48 0.76 m/h 0 %
11:00:00 clear sky 8.790 8.790 8.790 40 1.31 m/h 0 %
14:00:00 few clouds 10.810 10.810 10.810 34 1.43 m/h 0 %
17:00:00 scattered clouds 9.950 9.950 9.950 37 0.17 m/h 0 %
20:00:00 clear sky 8.180 8.180 8.180 43 0.79 m/h 0 %
23:00:00 clear sky 6.650 6.650 6.650 47 0.97 m/h 0 %
01-Nov-2020 (Sun)
02:00:00 few clouds 5.420 5.420 5.420 49 0.85 m/h 0 %
05:00:00 scattered clouds 4.550 4.550 4.550 51 0.45 m/h 0 %
08:00:00 scattered clouds 6.790 6.790 6.790 42 0.73 m/h 0 %
11:00:00 scattered clouds 9.690 9.690 9.690 36 1.35 m/h 0 %
14:00:00 few clouds 11.610 11.610 11.610 32 1.6 m/h 0 %
17:00:00 scattered clouds 10.390 10.390 10.390 37 1.31 m/h 0 %
20:00:00 few clouds 8.660 8.660 8.660 42 1.02 m/h 0 %
23:00:00 few clouds 7.120 7.120 7.120 46 1.04 m/h 0 %
02-Nov-2020 (Mon)
02:00:00 clear sky 5.690 5.690 5.690 50 0.81 m/h 0 %

Famous Cities (60)